Filia Ariea — PIET — position and weather

sailwx.info

Track history (hours):
 
Tides and Currents Weather Stations Pressure Air Temp Water Temp Dewpoint Dewpoint Depression Visibility Wind Speed Wind Dir Waves Ship Positions

Filia Ariea

Last reported at 2017-Mar-26 16:19 UTC. Time now 2017-Mar-27 00:55 UTC.
Position N 53°35' E 000°24'.

Length 90 m; draft 3.2 m.

Type: Ship. MMSI: 244662000.

Date/timePositionNaut miles runAvg speedWind from/ knotsBaromVisibWave heightAir tempDewpointWater temp
2017-Mar-26 16:19N 53°35' E 000°24'0 0.0
2017-Mar-26 15:07N 53°35' E 000°24'0 0.0
2017-Mar-26 14:12N 53°35' E 000°24'0 0.0
2017-Mar-26 11:23N 53°36' E 000°24'0 0.0
2017-Mar-26 09:19N 53°36' E 000°24'0 0.0
2017-Mar-26 07:31N 53°36' E 000°24'0 0.1
2017-Mar-26 06:30N 53°36' E 000°24'0 0.0
2017-Mar-26 04:20N 53°35' E 000°24'0 0.0
2017-Mar-26 03:32N 53°35' E 000°24'0 0.0
2017-Mar-26 02:31N 53°35' E 000°24'0 0.0
2017-Mar-26 01:25N 53°35' E 000°24'0 0.1
2017-Mar-26 00:34N 53°36' E 000°24'0 0.0
2017-Mar-25 23:33N 53°36' E 000°24'0 0.1
2017-Mar-25 22:33N 53°36' E 000°24'0 0.0
2017-Mar-25 21:33N 53°36' E 000°24'6 6.5
2017-Mar-25 20:33N 53°30' E 000°30'1212.2
2017-Mar-25 19:33N 53°19' E 000°39'2010.0
2017-Mar-25 17:33N 53°06' E 001°04'9 9.3
2017-Mar-25 16:33N 53°02' E 001°18'10 9.6
2017-Mar-25 15:33N 52°57' E 001°32'1110.7
2017-Mar-25 14:33N 52°50' E 001°46'1111.3
2017-Mar-25 13:33N 52°40' E 001°54'1312.6
2017-Mar-25 12:33N 52°27' E 001°53'1212.1
2017-Mar-25 11:33N 52°15' E 001°51'1111.2
2017-Mar-25 10:33N 52°04' E 001°49'1010.2
2017-Mar-25 09:33N 51°54' E 001°48'9 9.4
2017-Mar-25 08:33N 51°45' E 001°48'9 8.7
2017-Mar-25 07:33N 51°36' E 001°48'8 8.3
2017-Mar-25 06:33N 51°28' E 001°46'8 8.1
2017-Mar-25 05:33N 51°20' E 001°43'8 7.7
2017-Mar-25 04:33N 51°13' E 001°38'7 6.9
2017-Mar-25 03:33N 51°06' E 001°39'8 8.4
2017-Mar-25 02:33N 50°59' E 001°33'12 9.2
2017-Mar-25 01:18N 50°48' E 001°24'810.1
2017-Mar-25 00:30N 50°42' E 001°17'54 8.6
2017-Mar-24 18:08N 49°59' E 000°24'5 7.9
2017-Mar-24 17:33N 49°56' E 000°19'1010.0
2017-Mar-24 16:33N 49°48' E 000°09'9 9.5
2017-Mar-24 15:33N 49°40' E 000°00'8 8.4
2017-Mar-24 14:33N 49°32' W 000°01'8 8.0
2017-Mar-24 13:33N 49°29' E 000°10'0 0.2
2017-Mar-24 12:33N 49°29' E 000°11'0 0.0
2017-Mar-24 11:33N 49°29' E 000°11'0 0.0
2017-Mar-24 10:32N 49°29' E 000°11'0 0.0
2017-Mar-24 09:32N 49°29' E 000°11'0 0.0
2017-Mar-24 08:31N 49°29' E 000°11'0 0.0
2017-Mar-24 07:31N 49°29' E 000°11'0 0.0
2017-Mar-24 06:30N 49°29' E 000°11'0 0.0
2017-Mar-24 05:33N 49°29' E 000°11'0 0.0
2017-Mar-24 04:33N 49°29' E 000°11'0 0.0
2017-Mar-24 03:32N 49°29' E 000°11'0 0.0
2017-Mar-24 02:32N 49°29' E 000°11'0 0.0
2017-Mar-24 01:31N 49°29' E 000°11'0 0.0
2017-Mar-24 00:31N 49°29' E 000°11'0 0.0
2017-Mar-23 23:33N 49°29' E 000°11'0 0.0
2017-Mar-23 22:33N 49°29' E 000°11'0 0.0
2017-Mar-23 21:33N 49°29' E 000°11'0 0.2
2017-Mar-23 20:33N 49°29' E 000°10'3 2.6
2017-Mar-23 19:33N 49°29' E 000°06'1111.1
2017-Mar-23 18:33N 49°32' W 000°10'7 6.9
2017-Mar-23 17:34N 49°33' W 000°21'7 6.9
2017-Mar-23 16:33N 49°33' W 000°31'1010.4
2017-Mar-23 15:33N 49°37' W 000°47'1111.1
2017-Mar-23 14:33N 49°43' W 001°01'9 9.2
2017-Mar-23 13:33N 49°45' W 001°14'10 9.7
2017-Mar-23 12:33N 49°47' W 001°29'9 8.7
2017-Mar-23 11:33N 49°49' W 001°42'9 9.2
2017-Mar-23 10:33N 49°50' W 001°56'206 7.9
2017-Mar-22 08:29N 52°14' W 005°50'10912.2
2017-Mar-21 23:33N 54°02' W 005°23'1212.4
2017-Mar-21 22:33N 54°14' W 005°20'1211.9
2017-Mar-21 21:33N 54°26' W 005°17'1211.8
2017-Mar-21 20:33N 54°37' W 005°25'9 9.2
2017-Mar-21 19:33N 54°42' W 005°38'10 1.6
2017-Mar-21 13:33N 54°38' W 005°53'0 0.0
2017-Mar-21 12:08N 54°38' W 005°53'0 0.0
2017-Mar-21 11:08N 54°38' W 005°53'0 0.0
2017-Mar-21 10:07N 54°38' W 005°53'0 0.0
2017-Mar-21 09:33N 54°38' W 005°53'0 0.0
2017-Mar-21 08:33N 54°38' W 005°53'0 0.0
2017-Mar-21 07:32N 54°38' W 005°53'0 0.0
2017-Mar-21 06:33N 54°38' W 005°53'0 0.0
2017-Mar-21 05:31N 54°38' W 005°53'0 0.0
2017-Mar-21 04:30N 54°38' W 005°53'0 0.0
2017-Mar-21 03:28N 54°38' W 005°53'0 0.0
2017-Mar-21 02:33N 54°38' W 005°53'0 0.0
2017-Mar-21 01:31N 54°38' W 005°53'0 0.0
2017-Mar-21 00:33N 54°38' W 005°53'0 0.0
2017-Mar-20 23:33N 54°38' W 005°53'0 0.0
2017-Mar-20 22:31N 54°38' W 005°53'0 0.0
2017-Mar-20 21:33N 54°38' W 005°53'0 0.0
2017-Mar-20 20:33N 54°38' W 005°53'0 0.0
2017-Mar-20 19:22N 54°38' W 005°53'0 0.0
2017-Mar-20 18:33N 54°38' W 005°53'0 0.0
2017-Mar-20 17:34N 54°38' W 005°53'0 0.0
2017-Mar-20 16:33N 54°38' W 005°53'0 0.0
2017-Mar-20 15:33N 54°38' W 005°53'0 0.0
2017-Mar-20 14:33N 54°38' W 005°53'0 0.0
2017-Mar-20 12:24N 54°38' W 005°53'0 0.0
2017-Mar-20 09:31N 54°38' W 005°53'0 0.0
2017-Mar-20 07:22N 54°38' W 005°53'0 0.0
2017-Mar-20 06:26N 54°38' W 005°53'0 0.0
2017-Mar-20 05:24N 54°38' W 005°53'0 0.0
2017-Mar-20 04:33N 54°38' W 005°53'0 0.0
2017-Mar-20 03:25N 54°38' W 005°53'0 0.0
2017-Mar-20 02:29N 54°38' W 005°53'0 0.0
2017-Mar-20 01:33N 54°38' W 005°53'0 0.0
2017-Mar-19 15:06N 54°38' W 005°53'0 0.0
2017-Mar-19 14:28N 54°38' W 005°53'0 0.0
2017-Mar-19 13:29N 54°38' W 005°53'0 0.0
2017-Mar-19 12:32N 54°38' W 005°53'0 0.0
2017-Mar-19 11:33N 54°38' W 005°53'0 0.0
2017-Mar-19 10:33N 54°38' W 005°53'0 0.0
2017-Mar-19 09:33N 54°38' W 005°53'0 0.0
2017-Mar-19 08:30N 54°38' W 005°53'0 0.0
2017-Mar-19 07:33N 54°38' W 005°53'0 0.0
2017-Mar-19 05:25N 54°38' W 005°53'0 0.0
2017-Mar-19 04:20N 54°38' W 005°53'0 0.0
2017-Mar-19 03:31N 54°38' W 005°53'0 0.0
2017-Mar-19 02:14N 54°38' W 005°53'0 0.0
2017-Mar-19 01:32N 54°38' W 005°53'0 0.0
2017-Mar-19 00:28N 54°38' W 005°53'0 0.1
2017-Mar-18 23:33N 54°37' W 005°53'6 5.6
2017-Mar-18 22:33N 54°41' W 005°46'4 3.7
2017-Mar-18 21:31N 54°41' W 005°40'0 0.0
2017-Mar-18 20:33N 54°41' W 005°40'0 0.0
2017-Mar-18 19:31N 54°41' W 005°40'0 0.0
2017-Mar-18 18:32N 54°41' W 005°40'0 0.0
2017-Mar-18 17:32N 54°41' W 005°40'0 0.0
2017-Mar-18 16:28N 54°41' W 005°40'1 1.2
2017-Mar-18 15:33N 54°42' W 005°38'7 6.6
2017-Mar-18 14:33N 54°42' W 005°27'8 7.8
2017-Mar-18 13:33N 54°34' W 005°23'7 7.2
2017-Mar-18 12:33N 54°27' W 005°21'8 7.7
2017-Mar-18 11:33N 54°20' W 005°25'9 8.7
2017-Mar-18 10:33N 54°11' W 005°29'20410.7
2017-Mar-17 15:33N 50°48' W 005°52'10 9.7
2017-Mar-17 14:33N 50°38' W 005°51'1411.4
2017-Mar-17 13:21N 50°24' W 005°53'61 7.6
2017-Mar-17 05:19N 49°56' W 004°29'911.1
2017-Mar-17 04:33N 49°58' W 004°16'1211.3
2017-Mar-17 03:30N 50°00' W 003°58'1111.9
2017-Mar-17 02:33N 50°03' W 003°41'1212.2
2017-Mar-17 01:33N 50°06' W 003°22'1111.5
2017-Mar-17 00:33N 50°10' W 003°05'1110.5
2017-Mar-16 23:33N 50°12' W 002°49'10 9.5
2017-Mar-16 22:31N 50°14' W 002°34'5410.8
2017-Mar-16 17:30N 50°23' W 001°11'  
Track history (hours):
 
Tides and Currents Weather Stations Pressure Air Temp Water Temp Dewpoint Dewpoint Depression Visibility Wind Speed Wind Dir Waves Ship Positions

Filia Ariea

Last reported at 2017-Mar-26 16:19 UTC. Time now 2017-Mar-27 00:55 UTC.
Position N 53°35' E 000°24'.

Length 90 m; draft 3.2 m.

Type: Ship. MMSI: 244662000.

Date/timePositionNaut miles runAvg speedWind from/ knotsBaromVisibWave heightAir tempDewpointWater temp
2017-Mar-26 16:19N 53°35' E 000°24'0 0.0
2017-Mar-26 15:07N 53°35' E 000°24'0 0.0
2017-Mar-26 14:12N 53°35' E 000°24'0 0.0
2017-Mar-26 11:23N 53°36' E 000°24'0 0.0
2017-Mar-26 09:19N 53°36' E 000°24'0 0.0
2017-Mar-26 07:31N 53°36' E 000°24'0 0.1
2017-Mar-26 06:30N 53°36' E 000°24'0 0.0
2017-Mar-26 04:20N 53°35' E 000°24'0 0.0
2017-Mar-26 03:32N 53°35' E 000°24'0 0.0
2017-Mar-26 02:31N 53°35' E 000°24'0 0.0
2017-Mar-26 01:25N 53°35' E 000°24'0 0.1
2017-Mar-26 00:34N 53°36' E 000°24'0 0.0
2017-Mar-25 23:33N 53°36' E 000°24'0 0.1
2017-Mar-25 22:33N 53°36' E 000°24'0 0.0
2017-Mar-25 21:33N 53°36' E 000°24'6 6.5
2017-Mar-25 20:33N 53°30' E 000°30'1212.2
2017-Mar-25 19:33N 53°19' E 000°39'2010.0
2017-Mar-25 17:33N 53°06' E 001°04'9 9.3
2017-Mar-25 16:33N 53°02' E 001°18'10 9.6
2017-Mar-25 15:33N 52°57' E 001°32'1110.7
2017-Mar-25 14:33N 52°50' E 001°46'1111.3
2017-Mar-25 13:33N 52°40' E 001°54'1312.6
2017-Mar-25 12:33N 52°27' E 001°53'1212.1
2017-Mar-25 11:33N 52°15' E 001°51'1111.2
2017-Mar-25 10:33N 52°04' E 001°49'1010.2
2017-Mar-25 09:33N 51°54' E 001°48'9 9.4
2017-Mar-25 08:33N 51°45' E 001°48'9 8.7
2017-Mar-25 07:33N 51°36' E 001°48'8 8.3
2017-Mar-25 06:33N 51°28' E 001°46'8 8.1
2017-Mar-25 05:33N 51°20' E 001°43'8 7.7
2017-Mar-25 04:33N 51°13' E 001°38'7 6.9
2017-Mar-25 03:33N 51°06' E 001°39'8 8.4
2017-Mar-25 02:33N 50°59' E 001°33'12 9.2
2017-Mar-25 01:18N 50°48' E 001°24'810.1
2017-Mar-25 00:30N 50°42' E 001°17'54 8.6
2017-Mar-24 18:08N 49°59' E 000°24'5 7.9
2017-Mar-24 17:33N 49°56' E 000°19'1010.0
2017-Mar-24 16:33N 49°48' E 000°09'9 9.5
2017-Mar-24 15:33N 49°40' E 000°00'8 8.4
2017-Mar-24 14:33N 49°32' W 000°01'8 8.0
2017-Mar-24 13:33N 49°29' E 000°10'0 0.2
2017-Mar-24 12:33N 49°29' E 000°11'0 0.0
2017-Mar-24 11:33N 49°29' E 000°11'0 0.0
2017-Mar-24 10:32N 49°29' E 000°11'0 0.0
2017-Mar-24 09:32N 49°29' E 000°11'0 0.0
2017-Mar-24 08:31N 49°29' E 000°11'0 0.0
2017-Mar-24 07:31N 49°29' E 000°11'0 0.0
2017-Mar-24 06:30N 49°29' E 000°11'0 0.0
2017-Mar-24 05:33N 49°29' E 000°11'0 0.0
2017-Mar-24 04:33N 49°29' E 000°11'0 0.0
2017-Mar-24 03:32N 49°29' E 000°11'0 0.0
2017-Mar-24 02:32N 49°29' E 000°11'0 0.0
2017-Mar-24 01:31N 49°29' E 000°11'0 0.0
2017-Mar-24 00:31N 49°29' E 000°11'0 0.0
2017-Mar-23 23:33N 49°29' E 000°11'0 0.0
2017-Mar-23 22:33N 49°29' E 000°11'0 0.0
2017-Mar-23 21:33N 49°29' E 000°11'0 0.2
2017-Mar-23 20:33N 49°29' E 000°10'3 2.6
2017-Mar-23 19:33N 49°29' E 000°06'1111.1
2017-Mar-23 18:33N 49°32' W 000°10'7 6.9
2017-Mar-23 17:34N 49°33' W 000°21'7 6.9
2017-Mar-23 16:33N 49°33' W 000°31'1010.4
2017-Mar-23 15:33N 49°37' W 000°47'1111.1
2017-Mar-23 14:33N 49°43' W 001°01'9 9.2
2017-Mar-23 13:33N 49°45' W 001°14'10 9.7
2017-Mar-23 12:33N 49°47' W 001°29'9 8.7
2017-Mar-23 11:33N 49°49' W 001°42'9 9.2
2017-Mar-23 10:33N 49°50' W 001°56'206 7.9
2017-Mar-22 08:29N 52°14' W 005°50'10912.2
2017-Mar-21 23:33N 54°02' W 005°23'1212.4
2017-Mar-21 22:33N 54°14' W 005°20'1211.9
2017-Mar-21 21:33N 54°26' W 005°17'1211.8
2017-Mar-21 20:33N 54°37' W 005°25'9 9.2
2017-Mar-21 19:33N 54°42' W 005°38'10 1.6
2017-Mar-21 13:33N 54°38' W 005°53'0 0.0
2017-Mar-21 12:08N 54°38' W 005°53'0 0.0
2017-Mar-21 11:08N 54°38' W 005°53'0 0.0
2017-Mar-21 10:07N 54°38' W 005°53'0 0.0
2017-Mar-21 09:33N 54°38' W 005°53'0 0.0
2017-Mar-21 08:33N 54°38' W 005°53'0 0.0
2017-Mar-21 07:32N 54°38' W 005°53'0 0.0
2017-Mar-21 06:33N 54°38' W 005°53'0 0.0
2017-Mar-21 05:31N 54°38' W 005°53'0 0.0
2017-Mar-21 04:30N 54°38' W 005°53'0 0.0
2017-Mar-21 03:28N 54°38' W 005°53'0 0.0
2017-Mar-21 02:33N 54°38' W 005°53'0 0.0
2017-Mar-21 01:31N 54°38' W 005°53'0 0.0
2017-Mar-21 00:33N 54°38' W 005°53'0 0.0
2017-Mar-20 23:33N 54°38' W 005°53'0 0.0
2017-Mar-20 22:31N 54°38' W 005°53'0 0.0
2017-Mar-20 21:33N 54°38' W 005°53'0 0.0
2017-Mar-20 20:33N 54°38' W 005°53'0 0.0
2017-Mar-20 19:22N 54°38' W 005°53'0 0.0
2017-Mar-20 18:33N 54°38' W 005°53'0 0.0
2017-Mar-20 17:34N 54°38' W 005°53'0 0.0
2017-Mar-20 16:33N 54°38' W 005°53'0 0.0
2017-Mar-20 15:33N 54°38' W 005°53'0 0.0
2017-Mar-20 14:33N 54°38' W 005°53'0 0.0
2017-Mar-20 12:24N 54°38' W 005°53'0 0.0
2017-Mar-20 09:31N 54°38' W 005°53'0 0.0
2017-Mar-20 07:22N 54°38' W 005°53'0 0.0
2017-Mar-20 06:26N 54°38' W 005°53'0 0.0
2017-Mar-20 05:24N 54°38' W 005°53'0 0.0
2017-Mar-20 04:33N 54°38' W 005°53'0 0.0
2017-Mar-20 03:25N 54°38' W 005°53'0 0.0
2017-Mar-20 02:29N 54°38' W 005°53'0 0.0
2017-Mar-20 01:33N 54°38' W 005°53'0 0.0
2017-Mar-19 15:06N 54°38' W 005°53'0 0.0
2017-Mar-19 14:28N 54°38' W 005°53'0 0.0
2017-Mar-19 13:29N 54°38' W 005°53'0 0.0
2017-Mar-19 12:32N 54°38' W 005°53'0 0.0
2017-Mar-19 11:33N 54°38' W 005°53'0 0.0
2017-Mar-19 10:33N 54°38' W 005°53'0 0.0
2017-Mar-19 09:33N 54°38' W 005°53'0 0.0
2017-Mar-19 08:30N 54°38' W 005°53'0 0.0
2017-Mar-19 07:33N 54°38' W 005°53'0 0.0
2017-Mar-19 05:25N 54°38' W 005°53'0 0.0
2017-Mar-19 04:20N 54°38' W 005°53'0 0.0
2017-Mar-19 03:31N 54°38' W 005°53'0 0.0
2017-Mar-19 02:14N 54°38' W 005°53'0 0.0
2017-Mar-19 01:32N 54°38' W 005°53'0 0.0
2017-Mar-19 00:28N 54°38' W 005°53'0 0.1
2017-Mar-18 23:33N 54°37' W 005°53'6 5.6
2017-Mar-18 22:33N 54°41' W 005°46'4 3.7
2017-Mar-18 21:31N 54°41' W 005°40'0 0.0
2017-Mar-18 20:33N 54°41' W 005°40'0 0.0
2017-Mar-18 19:31N 54°41' W 005°40'0 0.0
2017-Mar-18 18:32N 54°41' W 005°40'0 0.0
2017-Mar-18 17:32N 54°41' W 005°40'0 0.0
2017-Mar-18 16:28N 54°41' W 005°40'1 1.2
2017-Mar-18 15:33N 54°42' W 005°38'7 6.6
2017-Mar-18 14:33N 54°42' W 005°27'8 7.8
2017-Mar-18 13:33N 54°34' W 005°23'7 7.2
2017-Mar-18 12:33N 54°27' W 005°21'8 7.7
2017-Mar-18 11:33N 54°20' W 005°25'9 8.7
2017-Mar-18 10:33N 54°11' W 005°29'20410.7
2017-Mar-17 15:33N 50°48' W 005°52'10 9.7
2017-Mar-17 14:33N 50°38' W 005°51'1411.4
2017-Mar-17 13:21N 50°24' W 005°53'61 7.6
2017-Mar-17 05:19N 49°56' W 004°29'911.1
2017-Mar-17 04:33N 49°58' W 004°16'1211.3
2017-Mar-17 03:30N 50°00' W 003°58'1111.9
2017-Mar-17 02:33N 50°03' W 003°41'1212.2
2017-Mar-17 01:33N 50°06' W 003°22'1111.5
2017-Mar-17 00:33N 50°10' W 003°05'1110.5
2017-Mar-16 23:33N 50°12' W 002°49'10 9.5
2017-Mar-16 22:31N 50°14' W 002°34'5410.8
2017-Mar-16 17:30N 50°23' W 001°11'  

Dump ship's entire track history